Time;durP1;ratioP1;P1;durP2;ratioP2;P2;SDS_P1;SDS_P2;PMS_P1;PMS_P2;Temp;Humidity;BMP_temperature;BMP_pressure;BME280_temperature;BME280_humidity;BME280_pressure;Samples;Min_cycle;Max_cycle;Signal;HPM_P1;HPM_P2
2023/12/24 00:00:10;;;;;;;;;;;;;;;9.92;93.83;100830.97;5011170;28;20338;-65
2023/12/24 00:02:35;;;;;;;;;;;;;;;9.90;93.12;100832.94;5011975;28;19964;-65
2023/12/24 00:05:01;;;;;;;;;;;;;;;9.87;93.07;100822.69;5018499;28;19972;-65
2023/12/24 00:07:26;;;;;;;;;;;;;;;9.94;92.12;100828.97;5008858;28;19917;-65
2023/12/24 00:09:51;;;;;;;;;;;;;;;9.99;91.73;100839.06;5011984;28;19917;-65
2023/12/24 00:12:16;;;;;;;;;;;;;;;10.00;91.62;100833.59;5010273;28;20012;-65
2023/12/24 00:14:41;;;;;;;;;;;;;;;9.97;91.66;100835.75;5007769;28;20040;-65
2023/12/24 00:17:07;;;;;;;;;;;;;;;9.98;91.43;100834.75;5016402;28;20020;-65
2023/12/24 00:19:32;;;;;;;;;;;;;;;10.02;91.22;100828.94;5014748;28;19917;-65
2023/12/24 00:21:57;;;;;;;;;;;;;;;10.03;91.27;100832.44;5008747;28;19925;-65
2023/12/24 00:24:22;;;;;;;;;;;;;;;10.05;91.13;100849.84;5014470;28;19921;-65
2023/12/24 00:26:47;;;;;;;;;;;;;;;9.96;91.26;100813.72;5014743;28;20346;-65
2023/12/24 00:29:13;;;;;;;;;;;;;;;9.97;91.24;100822.50;5019631;28;19932;-65
2023/12/24 00:31:38;;;;;;;;;;;;;;;10.03;90.99;100803.25;5014964;28;19924;-65
2023/12/24 00:34:03;;;;;;;;;;;;;;;10.05;90.55;100788.81;5016910;28;19917;-65
2023/12/24 00:36:28;;;;;;;;;;;;;;;9.97;90.82;100801.28;5017957;28;20012;-65
2023/12/24 00:38:53;;;;;;;;;;;;;;;9.96;90.67;100789.84;5013413;28;20438;-65
2023/12/24 00:41:19;;;;;;;;;;;;;;;9.94;90.48;100775.91;5015741;28;19928;-65
2023/12/24 00:43:45;;;;;;;;;;;;;;;9.93;90.07;100761.00;5017314;28;20347;-65
2023/12/24 00:46:17;;;;;;;;;;;;;;;9.89;89.87;100741.94;5011420;28;19945;-65
2023/12/24 00:48:42;;;;;;;;;;;;;;;9.94;89.47;100746.72;5009929;28;19964;-65
2023/12/24 00:51:07;;;;;;;;;;;;;;;9.88;89.16;100721.72;5004303;28;19959;-65
2023/12/24 00:53:33;;;;;;;;;;;;;;;9.84;89.42;100704.50;5010705;28;19921;-65
2023/12/24 00:55:58;;;;;;;;;;;;;;;9.80;89.38;100702.31;5005512;28;19914;-65
2023/12/24 00:58:23;;;;;;;;;;;;;;;9.76;89.27;100693.03;5008162;28;19918;-65
2023/12/24 01:00:49;;;;;;;;;;;;;;;9.77;89.33;100678.78;5009087;28;19918;-65
2023/12/24 01:03:14;;;;;;;;;;;;;;;9.77;89.53;100665.53;5011995;28;19933;-65
2023/12/24 01:05:39;;;;;;;;;;;;;;;9.80;89.37;100683.75;5010021;28;20470;-65
2023/12/24 01:08:05;;;;;;;;;;;;;;;9.76;89.38;100677.97;5006831;28;19914;-65
2023/12/24 01:10:30;;;;;;;;;;;;;;;9.73;89.66;100693.38;5013882;28;19924;-65
2023/12/24 01:12:55;;;;;;;;;;;;;;;9.82;89.79;100693.19;5013775;28;19925;-65
2023/12/24 01:15:20;;;;;;;;;;;;;;;9.79;89.93;100676.78;5018327;28;19922;-65
2023/12/24 01:17:46;;;;;;;;;;;;;;;9.79;90.00;100708.63;5012988;28;20558;-65
2023/12/24 01:20:11;;;;;;;;;;;;;;;9.75;90.29;100694.88;5016643;28;19921;-65
2023/12/24 01:22:37;;;;;;;;;;;;;;;9.82;90.13;100710.94;5016864;28;20036;-65
2023/12/24 01:25:02;;;;;;;;;;;;;;;9.86;90.02;100691.06;5021191;28;19921;-65
2023/12/24 01:27:27;;;;;;;;;;;;;;;9.90;90.05;100687.88;5018448;28;19933;-65
2023/12/24 01:29:54;;;;;;;;;;;;;;;9.89;90.40;100683.59;5019693;28;19917;-65
2023/12/24 01:32:19;;;;;;;;;;;;;;;9.83;90.65;100688.72;5019363;28;19928;-65
2023/12/24 01:34:45;;;;;;;;;;;;;;;9.75;91.44;100675.47;5020720;28;19917;-65
2023/12/24 01:37:10;;;;;;;;;;;;;;;9.71;92.08;100692.72;5013265;28;19925;-64
2023/12/24 01:39:35;;;;;;;;;;;;;;;9.62;92.83;100681.31;5018110;28;19924;-65
2023/12/24 01:42:00;;;;;;;;;;;;;;;9.65;93.38;100690.75;5016755;28;20421;-65
2023/12/24 01:44:25;;;;;;;;;;;;;;;9.44;94.66;100684.16;5017637;28;19917;-65
2023/12/24 01:46:51;;;;;;;;;;;;;;;9.30;96.09;100687.47;5017700;28;19932;-65
2023/12/24 01:49:16;;;;;;;;;;;;;;;9.10;97.33;100688.78;5017851;28;20390;-65
2023/12/24 01:51:41;;;;;;;;;;;;;;;9.01;98.05;100693.25;5015723;28;20798;-65
2023/12/24 01:54:07;;;;;;;;;;;;;;;9.04;99.30;100692.09;5020467;28;19921;-66
2023/12/24 01:56:32;;;;;;;;;;;;;;;9.04;99.93;100697.41;5016849;28;19921;-66
2023/12/24 01:58:58;;;;;;;;;;;;;;;9.03;100.00;100687.78;5021647;28;19921;-65
2023/12/24 02:01:24;;;;;;;;;;;;;;;8.94;100.00;100681.63;5017436;28;19979;-65
2023/12/24 02:03:49;;;;;;;;;;;;;;;8.90;100.00;100689.09;5022718;28;19979;-65
2023/12/24 02:06:14;;;;;;;;;;;;;;;8.92;100.00;100687.09;5018917;28;19929;-65
2023/12/24 02:08:40;;;;;;;;;;;;;;;8.97;100.00;100694.59;5022581;28;19925;-66
2023/12/24 02:11:05;;;;;;;;;;;;;;;9.00;100.00;100687.13;5018549;28;19920;-65
2023/12/24 02:13:31;;;;;;;;;;;;;;;8.92;100.00;100676.50;5015906;28;20020;-65
2023/12/24 02:15:57;;;;;;;;;;;;;;;8.90;100.00;100675.00;5022832;28;20007;-65
2023/12/24 02:18:23;;;;;;;;;;;;;;;8.81;100.00;100662.78;5015732;28;19928;-65
2023/12/24 02:20:48;;;;;;;;;;;;;;;8.86;100.00;100671.88;5020230;28;19921;-65
2023/12/24 02:23:13;;;;;;;;;;;;;;;8.83;100.00;100660.78;5017107;28;19917;-65
2023/12/24 02:25:39;;;;;;;;;;;;;;;8.84;100.00;100675.69;5020289;28;19917;-66
2023/12/24 02:28:23;;;;;;;;;;;;;;;8.84;100.00;100657.97;5023989;28;20469;-66
2023/12/24 02:30:50;;;;;;;;;;;;;;;8.81;100.00;100668.91;5022396;28;19922;-66
2023/12/24 02:33:17;;;;;;;;;;;;;;;8.74;100.00;100652.00;5022598;28;20016;-66
2023/12/24 02:35:43;;;;;;;;;;;;;;;8.71;100.00;100647.03;5020425;28;20305;-66
2023/12/24 02:38:09;;;;;;;;;;;;;;;8.69;100.00;100639.25;5022944;28;19933;-66
2023/12/24 02:40:34;;;;;;;;;;;;;;;8.70;100.00;100626.84;5021139;28;19921;-66
2023/12/24 02:42:59;;;;;;;;;;;;;;;8.67;100.00;100619.22;5022277;28;19921;-66
2023/12/24 02:45:24;;;;;;;;;;;;;;;8.62;100.00;100622.34;5023402;28;19917;-66
2023/12/24 02:47:50;;;;;;;;;;;;;;;8.62;100.00;100614.41;5024772;28;19917;-66
2023/12/24 02:50:18;;;;;;;;;;;;;;;8.60;100.00;100608.47;5023560;28;19924;-66
2023/12/24 02:52:44;;;;;;;;;;;;;;;8.58;100.00;100614.91;5019009;28;19956;-66
2023/12/24 02:55:09;;;;;;;;;;;;;;;8.61;100.00;100620.69;5023449;28;19921;-66
2023/12/24 02:57:34;;;;;;;;;;;;;;;8.61;100.00;100619.88;5021317;28;19924;-66
2023/12/24 03:00:00;;;;;;;;;;;;;;;8.60;100.00;100629.63;5022738;28;19921;-66
2023/12/24 03:02:25;;;;;;;;;;;;;;;8.61;100.00;100617.22;5019231;28;19921;-66
2023/12/24 03:04:50;;;;;;;;;;;;;;;8.61;100.00;100626.00;5018815;28;19921;-66
2023/12/24 03:07:15;;;;;;;;;;;;;;;8.59;100.00;100593.56;5023165;28;19921;-66
2023/12/24 03:09:40;;;;;;;;;;;;;;;8.64;100.00;100603.66;5019651;28;19921;-66
2023/12/24 03:12:06;;;;;;;;;;;;;;;8.62;100.00;100597.69;5022776;28;19927;-66
2023/12/24 03:14:31;;;;;;;;;;;;;;;8.63;100.00;100580.84;5020037;28;20581;-66
2023/12/24 03:16:56;;;;;;;;;;;;;;;8.70;100.00;100576.56;5021828;28;19921;-66
2023/12/24 03:19:22;;;;;;;;;;;;;;;8.66;100.00;100577.84;5020507;28;19968;-66
2023/12/24 03:21:47;;;;;;;;;;;;;;;8.66;100.00;100572.56;5017494;28;19925;-66
2023/12/24 03:24:12;;;;;;;;;;;;;;;8.68;100.00;100582.03;5020498;28;19921;-66
2023/12/24 03:26:37;;;;;;;;;;;;;;;8.73;100.00;100564.81;5020939;28;19917;-67
2023/12/24 03:29:02;;;;;;;;;;;;;;;8.73;100.00;100570.94;5017775;28;19964;-67
2023/12/24 03:31:28;;;;;;;;;;;;;;;8.74;100.00;100562.00;5022194;28;19921;-67
2023/12/24 03:33:53;;;;;;;;;;;;;;;8.75;100.00;100555.72;5020031;28;20378;-67
2023/12/24 03:36:19;;;;;;;;;;;;;;;8.78;100.00;100557.19;5022542;28;19921;-67
2023/12/24 03:38:44;;;;;;;;;;;;;;;8.80;100.00;100560.50;5018361;28;20299;-66
2023/12/24 03:41:09;;;;;;;;;;;;;;;8.80;100.00;100550.72;5017200;28;19990;-66
2023/12/24 03:43:35;;;;;;;;;;;;;;;8.80;100.00;100552.56;5016616;28;19925;-67
2023/12/24 03:46:00;;;;;;;;;;;;;;;8.82;100.00;100538.16;5010724;28;19925;-66
2023/12/24 03:48:25;;;;;;;;;;;;;;;8.85;100.00;100532.53;5017713;28;19921;-67
2023/12/24 03:50:50;;;;;;;;;;;;;;;8.84;100.00;100533.53;5018807;28;19921;-67
2023/12/24 03:53:16;;;;;;;;;;;;;;;8.87;100.00;100551.72;5012652;28;19932;-67
2023/12/24 03:55:41;;;;;;;;;;;;;;;8.87;100.00;100551.72;5019952;28;20371;-67
2023/12/24 03:58:06;;;;;;;;;;;;;;;8.88;100.00;100537.47;5022626;28;19928;-67
2023/12/24 04:00:31;;;;;;;;;;;;;;;8.91;100.00;100542.44;5019347;28;19925;-67
2023/12/24 04:02:56;;;;;;;;;;;;;;;8.92;100.00;100533.50;5021574;28;19925;-66
2023/12/24 04:05:22;;;;;;;;;;;;;;;8.90;100.00;100540.78;5023310;28;19972;-66
2023/12/24 04:07:47;;;;;;;;;;;;;;;8.94;100.00;100535.97;5016964;28;19921;-66
2023/12/24 04:10:12;;;;;;;;;;;;;;;8.97;100.00;100544.44;5018158;28;19982;-66
2023/12/24 04:12:38;;;;;;;;;;;;;;;8.95;100.00;100538.47;5021546;28;20306;-67
2023/12/24 04:15:07;;;;;;;;;;;;;;;8.97;100.00;100531.19;5021950;28;19943;-67
2023/12/24 04:17:34;;;;;;;;;;;;;;;8.97;100.00;100533.03;5020241;28;19921;-67
2023/12/24 04:20:00;;;;;;;;;;;;;;;8.96;100.00;100518.97;5021036;28;19917;-67
2023/12/24 04:22:25;;;;;;;;;;;;;;;8.97;100.00;100520.59;5018299;28;19928;-67
2023/12/24 04:24:51;;;;;;;;;;;;;;;8.98;100.00;100522.25;5020058;28;19926;-67
2023/12/24 04:27:16;;;;;;;;;;;;;;;8.99;100.00;100515.13;5020763;28;19920;-67
2023/12/24 04:29:41;;;;;;;;;;;;;;;9.00;100.00;100512.31;5020768;28;19957;-67
2023/12/24 04:32:06;;;;;;;;;;;;;;;9.03;100.00;100526.22;5017211;28;19921;-67
2023/12/24 04:34:31;;;;;;;;;;;;;;;9.06;100.00;100528.53;5019257;28;19925;-67
2023/12/24 04:36:57;;;;;;;;;;;;;;;9.06;100.00;100525.88;5023551;28;20378;-67
2023/12/24 04:39:24;;;;;;;;;;;;;;;9.06;100.00;100515.28;5020994;28;20439;-67
2023/12/24 04:41:49;;;;;;;;;;;;;;;9.06;100.00;100500.22;5019574;28;19932;-68
2023/12/24 04:44:15;;;;;;;;;;;;;;;9.08;100.00;100515.94;5022922;28;20283;-67
2023/12/24 04:46:41;;;;;;;;;;;;;;;9.11;100.00;100519.09;5018654;28;19948;-68
2023/12/24 04:49:06;;;;;;;;;;;;;;;9.13;100.00;100508.31;5020132;28;19945;-67
2023/12/24 04:51:32;;;;;;;;;;;;;;;9.14;100.00;100509.97;5021226;28;19952;-67
2023/12/24 04:53:57;;;;;;;;;;;;;;;9.16;100.00;100513.28;5017237;28;20012;-67
2023/12/24 04:56:22;;;;;;;;;;;;;;;9.17;100.00;100513.09;5013498;28;19921;-67
2023/12/24 04:58:47;;;;;;;;;;;;;;;9.17;100.00;100515.75;5021233;28;19987;-68
2023/12/24 05:01:16;;;;;;;;;;;;;;;9.22;100.00;100510.75;5016192;28;19921;-67
2023/12/24 05:03:42;;;;;;;;;;;;;;;9.23;100.00;100512.41;5020618;28;19924;-68
2023/12/24 05:06:07;;;;;;;;;;;;;;;9.24;100.00;100511.41;5022182;28;19935;-67
2023/12/24 05:08:32;;;;;;;;;;;;;;;9.27;100.00;100520.88;5019352;28;19928;-69
2023/12/24 05:10:57;;;;;;;;;;;;;;;9.24;100.00;100506.13;5019515;28;19943;-68
2023/12/24 05:13:22;;;;;;;;;;;;;;;9.27;100.00;100511.09;5020569;28;20368;-68
2023/12/24 05:15:48;;;;;;;;;;;;;;;9.25;100.00;100507.81;5021086;28;19917;-68
2023/12/24 05:18:13;;;;;;;;;;;;;;;9.28;100.00;100511.94;5019637;28;20417;-68
2023/12/24 05:20:38;;;;;;;;;;;;;;;9.28;100.00;100496.84;5017242;28;19935;-68
2023/12/24 05:23:03;;;;;;;;;;;;;;;9.28;100.00;100506.63;5019614;28;19921;-71
2023/12/24 05:25:28;;;;;;;;;;;;;;;9.28;100.00;100504.81;5013615;28;19922;-68
2023/12/24 05:27:54;;;;;;;;;;;;;;;9.32;100.00;100508.78;5017178;28;20345;-68
2023/12/24 05:30:19;;;;;;;;;;;;;;;9.33;100.00;100496.34;5022025;28;20417;-68
2023/12/24 05:32:44;;;;;;;;;;;;;;;9.34;100.00;100487.41;5019395;28;19925;-68
2023/12/24 05:35:09;;;;;;;;;;;;;;;9.37;100.00;100500.31;5020501;28;19921;-68
2023/12/24 05:37:35;;;;;;;;;;;;;;;9.39;100.00;100490.34;5015955;28;19920;-68
2023/12/24 05:40:00;;;;;;;;;;;;;;;9.38;100.00;100499.31;5023633;28;20260;-68
2023/12/24 05:42:25;;;;;;;;;;;;;;;9.39;100.00;100495.66;5023627;28;19921;-69
2023/12/24 05:44:50;;;;;;;;;;;;;;;9.38;100.00;100499.31;5024703;28;20390;-68
2023/12/24 05:47:15;;;;;;;;;;;;;;;9.42;100.00;100483.88;5024568;28;19923;-68
2023/12/24 05:49:41;;;;;;;;;;;;;;;9.42;100.00;100505.09;5017578;28;19925;-68
2023/12/24 05:52:06;;;;;;;;;;;;;;;9.43;100.00;100502.25;5015686;28;19921;-68
2023/12/24 05:54:31;;;;;;;;;;;;;;;9.45;100.00;100510.88;5019582;28;19921;-68
2023/12/24 05:56:56;;;;;;;;;;;;;;;9.48;100.00;100528.25;5017732;28;19956;-69
2023/12/24 05:59:22;;;;;;;;;;;;;;;9.47;100.00;100521.28;5013753;28;21945;-68
2023/12/24 06:01:48;;;;;;;;;;;;;;;9.50;100.00;100540.31;5016219;28;20771;-69
2023/12/24 06:04:13;;;;;;;;;;;;;;;9.50;100.00;100542.97;5019013;28;19983;-68
2023/12/24 06:06:41;;;;;;;;;;;;;;;9.55;100.00;100561.06;5015405;28;21082;-68
2023/12/24 06:09:07;;;;;;;;;;;;;;;9.57;100.00;100570.47;5013574;28;19918;-70
2023/12/24 06:11:32;;;;;;;;;;;;;;;9.59;100.00;100578.25;5022899;28;20270;-68
2023/12/24 06:13:57;;;;;;;;;;;;;;;9.62;100.00;100594.66;5012495;28;20387;-68
2023/12/24 06:16:23;;;;;;;;;;;;;;;9.61;100.00;100590.34;5020341;28;19920;-68
2023/12/24 06:18:48;;;;;;;;;;;;;;;9.59;100.00;100572.97;5018731;28;20715;-69
2023/12/24 06:21:13;;;;;;;;;;;;;;;9.63;100.00;100595.47;5011989;28;20416;-68
2023/12/24 06:23:39;;;;;;;;;;;;;;;9.65;100.00;100600.59;5013618;28;20394;-69
2023/12/24 06:26:05;;;;;;;;;;;;;;;9.65;100.00;100601.44;5024505;28;19960;-68
2023/12/24 06:28:30;;;;;;;;;;;;;;;9.67;100.00;100612.69;5016171;28;19925;-68
2023/12/24 06:30:55;;;;;;;;;;;;;;;9.73;100.00;100643.00;5016595;28;20378;-69
2023/12/24 06:33:21;;;;;;;;;;;;;;;9.69;100.00;100623.97;5015192;28;20398;-69
2023/12/24 06:35:46;;;;;;;;;;;;;;;9.68;100.00;100618.81;5018976;28;19917;-69
2023/12/24 06:38:11;;;;;;;;;;;;;;;9.68;100.00;100622.31;5019353;28;19924;-67
2023/12/24 06:40:36;;;;;;;;;;;;;;;9.66;100.00;100610.22;5019887;28;20460;-68
2023/12/24 06:43:02;;;;;;;;;;;;;;;9.67;100.00;100618.00;5025193;28;20473;-68
2023/12/24 06:45:27;;;;;;;;;;;;;;;9.71;100.00;100627.25;5021361;28;19929;-68
2023/12/24 06:47:52;;;;;;;;;;;;;;;9.68;100.00;100624.13;5019975;28;19992;-68
2023/12/24 06:50:19;;;;;;;;;;;;;;;9.70;100.00;100638.88;5018477;28;19992;-68
2023/12/24 06:52:44;;;;;;;;;;;;;;;9.71;100.00;100637.88;5020787;28;19920;-68
2023/12/24 06:55:11;;;;;;;;;;;;;;;9.72;100.00;100639.53;5019602;28;19921;-68
2023/12/24 06:57:37;;;;;;;;;;;;;;;9.72;100.00;100641.34;5014803;28;19963;-68
2023/12/24 07:00:02;;;;;;;;;;;;;;;9.74;100.00;100653.44;5016599;28;20542;-68
2023/12/24 07:02:27;;;;;;;;;;;;;;;9.76;100.00;100658.56;5016588;28;20536;-69
2023/12/24 07:04:52;;;;;;;;;;;;;;;9.77;100.00;100662.88;5015405;28;19929;-69
2023/12/24 07:07:18;;;;;;;;;;;;;;;9.76;100.00;100658.56;5019865;28;19936;-70
2023/12/24 07:09:43;;;;;;;;;;;;;;;9.78;100.00;100667.19;5015565;28;19926;-69
2023/12/24 07:12:08;;;;;;;;;;;;;;;9.78;100.00;100672.50;5014882;28;19925;-69
2023/12/24 07:14:33;;;;;;;;;;;;;;;9.81;100.00;100688.06;5019408;28;19986;-69
2023/12/24 07:16:59;;;;;;;;;;;;;;;9.83;100.00;100699.31;5020103;28;19973;-69
2023/12/24 07:19:24;;;;;;;;;;;;;;;9.81;100.00;100691.53;5019395;28;19921;-68
2023/12/24 07:21:49;;;;;;;;;;;;;;;9.84;100.00;100695.69;5019178;28;19925;-68
2023/12/24 07:24:14;;;;;;;;;;;;;;;9.85;100.00;100700.00;5008331;28;20314;-69
2023/12/24 07:26:40;;;;;;;;;;;;;;;9.87;100.00;100708.63;5013672;28;19974;-68
2023/12/24 07:29:05;;;;;;;;;;;;;;;9.85;100.00;100706.16;5015525;28;19925;-69
2023/12/24 07:31:30;;;;;;;;;;;;;;;9.87;100.00;100708.63;5015763;28;20515;-68
2023/12/24 07:33:55;;;;;;;;;;;;;;;9.86;100.00;100710.44;5016893;28;20042;-68
2023/12/24 07:36:20;;;;;;;;;;;;;;;9.88;100.00;100718.22;5016739;28;19936;-69
2023/12/24 07:38:46;;;;;;;;;;;;;;;9.88;100.00;100720.88;5020460;28;19955;-68
2023/12/24 07:41:11;;;;;;;;;;;;;;;9.88;100.00;100715.59;5015512;28;20411;-68
2023/12/24 07:43:36;;;;;;;;;;;;;;;9.93;100.00;100737.94;5014498;28;19920;-69
2023/12/24 07:46:02;;;;;;;;;;;;;;;9.92;100.00;100738.94;5019156;28;19917;-68
2023/12/24 07:48:27;;;;;;;;;;;;;;;9.93;100.00;100742.44;5021442;28;19974;-68
2023/12/24 07:50:52;;;;;;;;;;;;;;;9.93;100.00;100745.91;5015890;28;19917;-70
2023/12/24 07:53:18;;;;;;;;;;;;;;;9.95;100.00;100745.72;5017641;28;19927;-68
2023/12/24 07:55:43;;;;;;;;;;;;;;;9.95;100.00;100753.69;5015615;28;19928;-70
2023/12/24 07:58:08;;;;;;;;;;;;;;;9.94;100.00;100755.53;5020199;28;19948;-71
2023/12/24 08:00:34;;;;;;;;;;;;;;;9.96;100.00;100750.03;5013796;28;20444;-70
2023/12/24 08:02:59;;;;;;;;;;;;;;;9.96;100.00;100750.03;5014548;28;19995;-69
2023/12/24 08:05:25;;;;;;;;;;;;;;;10.00;100.00;100777.88;5015432;28;19963;-68
2023/12/24 08:07:50;;;;;;;;;;;;;;;9.98;100.00;100763.13;5015449;28;20452;-68
2023/12/24 08:10:15;;;;;;;;;;;;;;;9.97;100.00;100753.53;5014991;28;19949;-69
2023/12/24 08:12:41;;;;;;;;;;;;;;;10.00;100.00;100769.09;5014613;28;19986;-69
2023/12/24 08:15:06;;;;;;;;;;;;;;;10.02;100.00;100783.84;5016181;28;20059;-68
2023/12/24 08:17:31;;;;;;;;;;;;;;;10.03;100.00;100780.19;5016459;28;20410;-68
2023/12/24 08:19:57;;;;;;;;;;;;;;;10.01;100.00;100776.06;5015477;28;20801;-69
2023/12/24 08:22:22;;;;;;;;;;;;;;;10.02;100.00;100783.84;5012350;28;19937;-69
2023/12/24 08:24:48;;;;;;;;;;;;;;;10.02;100.00;100778.53;5014243;28;19928;-68
2023/12/24 08:27:13;;;;;;;;;;;;;;;10.02;100.00;100783.03;5014909;28;19932;-69
2023/12/24 08:29:38;;;;;;;;;;;;;;;10.03;100.00;100784.69;5015712;28;19952;-69
2023/12/24 08:32:03;;;;;;;;;;;;;;;10.04;100.00;100789.00;5013928;28;19921;-69
2023/12/24 08:34:29;;;;;;;;;;;;;;;10.05;100.00;100790.63;5013722;28;19921;-68
2023/12/24 08:36:54;;;;;;;;;;;;;;;10.04;100.00;100795.13;5013840;28;19921;-69
2023/12/24 08:39:19;;;;;;;;;;;;;;;10.06;100.00;100803.75;5014539;28;20391;-69
2023/12/24 08:41:44;;;;;;;;;;;;;;;10.06;100.00;100801.09;5014386;28;20665;-69
2023/12/24 08:44:10;;;;;;;;;;;;;;;10.05;100.00;100796.78;5013054;28;19944;-70
2023/12/24 08:46:35;;;;;;;;;;;;;;;10.04;100.00;100796.94;5015874;28;19921;-69
2023/12/24 08:49:00;;;;;;;;;;;;;;;10.05;100.00;100798.59;5014647;28;19925;-69
2023/12/24 08:51:25;;;;;;;;;;;;;;;10.06;100.00;100802.91;5014665;28;20378;-69
2023/12/24 08:53:51;;;;;;;;;;;;;;;10.05;100.00;100795.94;5016970;28;19979;-69
2023/12/24 08:56:16;;;;;;;;;;;;;;;10.06;100.00;100803.75;5018460;28;20040;-68
2023/12/24 08:58:41;;;;;;;;;;;;;;;10.09;100.00;100819.31;5016556;28;20008;-69
2023/12/24 09:01:06;;;;;;;;;;;;;;;10.09;100.00;100816.66;5016735;28;19956;-69
2023/12/24 09:03:31;;;;;;;;;;;;;;;10.09;100.00;100815.84;5014841;28;20055;-70
2023/12/24 09:05:57;;;;;;;;;;;;;;;10.08;100.00;100815.00;5014262;28;20018;-69
2023/12/24 09:08:22;;;;;;;;;;;;;;;10.11;100.00;100827.94;5014701;28;19925;-69
2023/12/24 09:10:47;;;;;;;;;;;;;;;10.14;100.00;100843.56;5015561;28;20008;-69
2023/12/24 09:13:12;;;;;;;;;;;;;;;10.12;100.00;100834.94;5016608;28;19924;-69
2023/12/24 09:15:37;;;;;;;;;;;;;;;10.14;100.00;100837.41;5017407;28;19921;-68
2023/12/24 09:18:03;;;;;;;;;;;;;;;10.13;100.00;100841.91;5020609;28;19928;-68
2023/12/24 09:20:28;;;;;;;;;;;;;;;10.15;100.00;100842.56;5018177;28;20016;-69
2023/12/24 09:22:53;;;;;;;;;;;;;;;10.15;100.00;100845.22;5016834;28;20673;-68
2023/12/24 09:25:19;;;;;;;;;;;;;;;10.18;100.00;100857.31;5019863;28;19925;-69
2023/12/24 09:27:44;;;;;;;;;;;;;;;10.18;100.00;100860.78;5017469;28;19935;-69
2023/12/24 09:30:09;;;;;;;;;;;;;;;10.19;100.00;100867.75;5013335;28;19925;-69
2023/12/24 09:32:35;;;;;;;;;;;;;;;10.19;100.00;100864.28;5013857;28;19925;-68
2023/12/24 09:35:00;;;;;;;;;;;;;;;10.20;100.00;100871.25;5021264;28;20018;-68
2023/12/24 09:37:26;;;;;;;;;;;;;;;10.20;100.00;100880.06;5018489;28;20030;-68
2023/12/24 09:39:52;;;;;;;;;;;;;;;10.22;100.00;100880.72;5021985;28;19925;-68
2023/12/24 09:42:17;;;;;;;;;;;;;;;10.22;100.00;100882.53;5015482;28;19936;-68
2023/12/24 09:44:42;;;;;;;;;;;;;;;10.28;100.00;100905.75;5020411;28;19975;-68
2023/12/24 09:47:07;;;;;;;;;;;;;;;10.27;100.00;100898.78;5014629;28;19924;-68
2023/12/24 09:49:33;;;;;;;;;;;;;;;10.31;100.00;100917.88;5016503;28;19921;-69
2023/12/24 09:51:59;;;;;;;;;;;;;;;10.35;100.00;100935.13;5012640;28;19983;-70
2023/12/24 09:54:24;;;;;;;;;;;;;;;10.36;100.00;100947.38;5014511;28;20571;-68
2023/12/24 09:56:49;;;;;;;;;;;;;;;10.43;100.00;100964.34;5018731;28;19925;-69
2023/12/24 09:59:15;;;;;;;;;;;;;;;10.45;100.00;100987.06;5016006;28;19921;-69
2023/12/24 10:01:41;;;;;;;;;;;;;;;10.50;100.00;100999.84;5018790;28;19964;-69
2023/12/24 10:04:06;;;;;;;;;;;;;;;10.61;100.00;101046.47;5016965;28;19917;-68
2023/12/24 10:06:33;;;;;;;;;;;;;;;10.61;100.00;101052.59;5016420;28;19979;-69
2023/12/24 10:08:58;;;;;;;;;;;;;;;10.64;100.00;101065.56;5015327;28;19922;-69
2023/12/24 10:11:23;;;;;;;;;;;;;;;10.67;100.00;101077.66;5019424;28;19921;-69
2023/12/24 10:13:59;;;;;;;;;;;;;;;10.68;100.00;101080.16;5016493;28;19963;-71
2023/12/24 10:16:25;;;;;;;;;;;;;;;10.73;100.00;101103.59;5018444;28;20519;-69
2023/12/24 10:18:50;;;;;;;;;;;;;;;10.74;100.00;101108.75;5019882;28;19925;-69
2023/12/24 10:21:16;;;;;;;;;;;;;;;10.77;100.00;101120.84;5022125;28;19967;-69
2023/12/24 10:23:41;;;;;;;;;;;;;;;10.77;100.00;101129.66;5012763;28;20406;-70
2023/12/24 10:26:08;;;;;;;;;;;;;;;10.79;100.00;101135.63;5020883;28;20836;-69
2023/12/24 10:28:34;;;;;;;;;;;;;;;10.88;100.00;101171.00;5007350;28;20016;-70
2023/12/24 10:31:09;;;;;;;;;;;;;;;10.86;100.00;101163.19;5013991;28;19921;-69
2023/12/24 10:33:39;;;;;;;;;;;;;;;10.92;100.00;101190.09;5011415;28;20152;-69
2023/12/24 10:36:05;;;;;;;;;;;;;;;10.91;100.00;101180.47;5013692;28;19924;-69
2023/12/24 10:38:31;;;;;;;;;;;;;;;10.93;100.00;101189.09;5017462;28;20299;-69
2023/12/24 10:40:56;;;;;;;;;;;;;;;10.97;100.00;101212.53;5019008;28;19940;-69
2023/12/24 10:43:21;;;;;;;;;;;;;;;10.95;100.00;101208.38;5021821;28;19960;-70
2023/12/24 10:45:46;;;;;;;;;;;;;;;10.99;100.00;101220.38;5019554;28;19921;-69
2023/12/24 10:48:12;;;;;;;;;;;;;;;11.02;100.00;101226.19;5017298;28;19921;-69
2023/12/24 10:50:38;;;;;;;;;;;;;;;11.04;100.00;101234.00;5018810;28;19921;-69
2023/12/24 10:53:03;;;;;;;;;;;;;;;11.08;100.00;101262.72;5018906;28;20003;-70
2023/12/24 10:55:29;;;;;;;;;;;;;;;11.10;100.00;101270.53;5023184;28;19925;-72
2023/12/24 10:57:55;;;;;;;;;;;;;;;11.14;100.00;101287.81;5013222;28;19925;-69
2023/12/24 11:00:20;;;;;;;;;;;;;;;11.13;100.00;101280.84;5013345;28;20378;-70
2023/12/24 11:02:47;;;;;;;;;;;;;;;11.14;100.00;100410.72;5010897;28;19925;-69
2023/12/24 11:05:32;;;;;;;;;;;;;;;11.11;100.00;100382.69;5015337;28;19928;-69
2023/12/24 11:07:57;;;;;;;;;;;;;;;11.12;100.00;100388.81;5008987;28;20494;-70
2023/12/24 11:10:40;;;;;;;;;;;;;;;11.12;100.00;100381.66;5014584;28;19925;-70
2023/12/24 11:13:09;;;;;;;;;;;;;;;11.11;100.00;100372.06;5006954;28;19921;-69
2023/12/24 11:15:41;;;;;;;;;;;;;;;11.10;100.00;100375.72;5013021;28;19917;-70
2023/12/24 11:18:08;;;;;;;;;;;;;;;11.10;100.00;100377.56;5008581;28;19921;-69
2023/12/24 11:20:40;;;;;;;;;;;;;;;11.09;100.00;100368.75;5019250;28;19931;-69
2023/12/24 11:23:06;;;;;;;;;;;;;;;11.06;100.00;100370.97;5016044;28;20507;-69
2023/12/24 11:25:40;;;;;;;;;;;;;;;11.05;100.00;100379.94;5017710;28;19947;-69
2023/12/24 11:28:07;;;;;;;;;;;;;;;11.04;100.00;100367.66;5014409;28;19921;-69
2023/12/24 11:30:51;;;;;;;;;;;;;;;11.00;100.00;100367.22;5017208;28;19932;-70
2023/12/24 11:33:28;;;;;;;;;;;;;;;11.00;100.00;100375.19;5012603;28;20019;-69
2023/12/24 11:35:54;;;;;;;;;;;;;;;10.96;100.00;100365.09;5008663;28;19932;-69
2023/12/24 11:38:35;;;;;;;;;;;;;;;10.95;100.00;100360.78;5016147;28;19927;-70
2023/12/24 11:41:13;;;;;;;;;;;;;;;10.93;100.00;100349.53;5021597;28;19928;-69
2023/12/24 11:43:40;;;;;;;;;;;;;;;10.91;100.00;100354.19;5021079;28;19928;-69
2023/12/24 11:46:05;;;;;;;;;;;;;;;10.92;100.00;100358.50;5022699;28;19925;-69
2023/12/24 11:48:32;;;;;;;;;;;;;;;10.88;100.00;100358.06;5020269;28;19928;-69
2023/12/24 11:51:00;;;;;;;;;;;;;;;10.89;100.00;100356.22;5019187;28;19917;-69
2023/12/24 11:53:25;;;;;;;;;;;;;;;10.81;100.00;100347.34;5021230;28;19921;-69
2023/12/24 11:56:13;;;;;;;;;;;;;;;10.85;100.00;100345.97;5016413;28;19917;-70
2023/12/24 11:58:39;;;;;;;;;;;;;;;10.84;100.00;100346.97;5019482;28;20395;-69
2023/12/24 12:01:04;;;;;;;;;;;;;;;10.81;100.00;100344.69;5015570;28;19928;-70
2023/12/24 12:03:30;;;;;;;;;;;;;;;10.80;100.00;100340.38;5019841;28;19924;-69
2023/12/24 12:05:55;;;;;;;;;;;;;;;10.82;100.00;100345.50;5018225;28;20451;-69
2023/12/24 12:08:21;;;;;;;;;;;;;;;10.79;100.00;100338.75;5016839;28;20003;-69
2023/12/24 12:10:47;;;;;;;;;;;;;;;10.79;100.00;100338.75;5018885;28;19917;-69
2023/12/24 12:13:12;;;;;;;;;;;;;;;10.79;100.00;100327.28;5019176;28;20008;-69
2023/12/24 12:15:37;;;;;;;;;;;;;;;10.78;100.00;100334.44;5016206;28;20020;-69
2023/12/24 12:18:03;;;;;;;;;;;;;;;10.80;100.00;100334.25;5017756;28;19925;-69
2023/12/24 12:20:28;;;;;;;;;;;;;;;10.77;100.00;100330.13;5014337;28;20387;-69
2023/12/24 12:22:53;;;;;;;;;;;;;;;10.78;100.00;100336.25;5012016;28;20004;-69
2023/12/24 12:25:19;;;;;;;;;;;;;;;10.79;100.00;100341.41;5019990;28;20461;-69
2023/12/24 12:27:44;;;;;;;;;;;;;;;10.82;100.00;100354.31;5019009;28;19921;-69